sensor_id;sensor_type;location;lat;lon;timestamp;temperature;humidity
44111;DHT22;29774;52.664;5.074;2023-02-28T00:00:15;4.00;89.10
44111;DHT22;29774;52.664;5.074;2023-02-28T00:02:42;4.10;89.10
44111;DHT22;29774;52.664;5.074;2023-02-28T00:05:10;4.10;89.10
44111;DHT22;29774;52.664;5.074;2023-02-28T00:07:36;4.10;89.10
44111;DHT22;29774;52.664;5.074;2023-02-28T00:10:03;4.10;89.20
44111;DHT22;29774;52.664;5.074;2023-02-28T00:12:29;4.10;89.20
44111;DHT22;29774;52.664;5.074;2023-02-28T00:14:54;4.10;89.20
44111;DHT22;29774;52.664;5.074;2023-02-28T00:17:20;4.10;89.20
44111;DHT22;29774;52.664;5.074;2023-02-28T00:19:50;4.10;89.20
44111;DHT22;29774;52.664;5.074;2023-02-28T00:22:18;4.10;89.20
44111;DHT22;29774;52.664;5.074;2023-02-28T00:24:44;4.20;89.30
44111;DHT22;29774;52.664;5.074;2023-02-28T00:27:10;4.20;89.30
44111;DHT22;29774;52.664;5.074;2023-02-28T00:29:36;4.10;89.20
44111;DHT22;29774;52.664;5.074;2023-02-28T00:32:02;4.20;89.30
44111;DHT22;29774;52.664;5.074;2023-02-28T00:34:28;4.20;89.30
44111;DHT22;29774;52.664;5.074;2023-02-28T00:36:54;4.10;89.40
44111;DHT22;29774;52.664;5.074;2023-02-28T00:39:20;4.10;89.40
44111;DHT22;29774;52.664;5.074;2023-02-28T00:41:45;4.10;89.50
44111;DHT22;29774;52.664;5.074;2023-02-28T00:44:11;4.10;89.50
44111;DHT22;29774;52.664;5.074;2023-02-28T00:46:37;4.10;89.50
44111;DHT22;29774;52.664;5.074;2023-02-28T00:49:03;4.20;89.60
44111;DHT22;29774;52.664;5.074;2023-02-28T00:51:28;4.20;89.60
44111;DHT22;29774;52.664;5.074;2023-02-28T00:53:54;4.20;89.60
44111;DHT22;29774;52.664;5.074;2023-02-28T00:56:20;4.20;89.70
44111;DHT22;29774;52.664;5.074;2023-02-28T00:58:45;4.20;89.70
44111;DHT22;29774;52.664;5.074;2023-02-28T01:01:11;4.20;89.80
44111;DHT22;29774;52.664;5.074;2023-02-28T01:03:37;4.20;89.80
44111;DHT22;29774;52.664;5.074;2023-02-28T01:06:03;4.20;89.80
44111;DHT22;29774;52.664;5.074;2023-02-28T01:08:29;4.20;89.80
44111;DHT22;29774;52.664;5.074;2023-02-28T01:10:55;4.20;89.90
44111;DHT22;29774;52.664;5.074;2023-02-28T01:13:20;4.20;89.90
44111;DHT22;29774;52.664;5.074;2023-02-28T01:15:50;4.10;89.90
44111;DHT22;29774;52.664;5.074;2023-02-28T01:18:17;4.20;90.00
44111;DHT22;29774;52.664;5.074;2023-02-28T01:20:42;4.10;90.00
44111;DHT22;29774;52.664;5.074;2023-02-28T01:23:08;4.10;90.00
44111;DHT22;29774;52.664;5.074;2023-02-28T01:25:35;4.10;90.00
44111;DHT22;29774;52.664;5.074;2023-02-28T01:28:01;4.10;90.00
44111;DHT22;29774;52.664;5.074;2023-02-28T01:30:27;4.10;90.00
44111;DHT22;29774;52.664;5.074;2023-02-28T01:32:52;4.10;90.10
44111;DHT22;29774;52.664;5.074;2023-02-28T01:35:19;4.10;90.10
44111;DHT22;29774;52.664;5.074;2023-02-28T01:37:45;4.10;90.10
44111;DHT22;29774;52.664;5.074;2023-02-28T01:40:11;4.10;90.10
44111;DHT22;29774;52.664;5.074;2023-02-28T01:42:37;4.20;90.10
44111;DHT22;29774;52.664;5.074;2023-02-28T01:45:23;4.20;90.20
44111;DHT22;29774;52.664;5.074;2023-02-28T01:47:53;4.20;90.20
44111;DHT22;29774;52.664;5.074;2023-02-28T01:50:23;4.20;90.20
44111;DHT22;29774;52.664;5.074;2023-02-28T01:52:51;4.20;90.20
44111;DHT22;29774;52.664;5.074;2023-02-28T01:55:18;4.20;90.20
44111;DHT22;29774;52.664;5.074;2023-02-28T01:57:48;4.10;90.20
44111;DHT22;29774;52.664;5.074;2023-02-28T02:00:19;4.20;90.20
44111;DHT22;29774;52.664;5.074;2023-02-28T02:02:48;4.10;90.20
44111;DHT22;29774;52.664;5.074;2023-02-28T02:05:21;4.20;90.20
44111;DHT22;29774;52.664;5.074;2023-02-28T02:07:49;4.10;90.20
44111;DHT22;29774;52.664;5.074;2023-02-28T02:10:18;4.10;90.20
44111;DHT22;29774;52.664;5.074;2023-02-28T02:17:57;4.10;90.20
44111;DHT22;29774;52.664;5.074;2023-02-28T02:23:30;4.00;90.20
44111;DHT22;29774;52.664;5.074;2023-02-28T02:29:46;4.00;90.30
44111;DHT22;29774;52.664;5.074;2023-02-28T02:32:09;4.00;90.30
44111;DHT22;29774;52.664;5.074;2023-02-28T02:37:37;4.00;90.30
44111;DHT22;29774;52.664;5.074;2023-02-28T02:40:20;3.90;90.20
44111;DHT22;29774;52.664;5.074;2023-02-28T02:43:01;3.70;90.00
44111;DHT22;29774;52.664;5.074;2023-02-28T02:45:39;3.70;89.80
44111;DHT22;29774;52.664;5.074;2023-02-28T02:48:10;3.60;89.90
44111;DHT22;29774;52.664;5.074;2023-02-28T02:50:42;3.70;90.10
44111;DHT22;29774;52.664;5.074;2023-02-28T02:53:10;3.70;90.20
44111;DHT22;29774;52.664;5.074;2023-02-28T02:55:40;3.80;90.40
44111;DHT22;29774;52.664;5.074;2023-02-28T02:58:10;3.80;90.50
44111;DHT22;29774;52.664;5.074;2023-02-28T03:00:45;3.80;90.50
44111;DHT22;29774;52.664;5.074;2023-02-28T03:03:13;3.80;90.60
44111;DHT22;29774;52.664;5.074;2023-02-28T03:05:47;3.80;90.60
44111;DHT22;29774;52.664;5.074;2023-02-28T03:08:13;3.80;90.70
44111;DHT22;29774;52.664;5.074;2023-02-28T03:10:42;3.80;90.70
44111;DHT22;29774;52.664;5.074;2023-02-28T03:27:06;3.80;90.80
44111;DHT22;29774;52.664;5.074;2023-02-28T03:29:39;3.80;90.90
44111;DHT22;29774;52.664;5.074;2023-02-28T03:32:28;3.80;90.90
44111;DHT22;29774;52.664;5.074;2023-02-28T03:34:59;3.80;90.80
44111;DHT22;29774;52.664;5.074;2023-02-28T03:37:30;3.90;90.90
44111;DHT22;29774;52.664;5.074;2023-02-28T03:40:00;3.80;90.80
44111;DHT22;29774;52.664;5.074;2023-02-28T03:42:29;3.90;90.90
44111;DHT22;29774;52.664;5.074;2023-02-28T03:45:05;3.80;90.80
44111;DHT22;29774;52.664;5.074;2023-02-28T03:47:51;3.80;90.90
44111;DHT22;29774;52.664;5.074;2023-02-28T03:50:27;3.80;90.80
44111;DHT22;29774;52.664;5.074;2023-02-28T03:53:01;3.80;90.90
44111;DHT22;29774;52.664;5.074;2023-02-28T03:55:34;3.80;90.90
44111;DHT22;29774;52.664;5.074;2023-02-28T03:58:08;3.80;91.00
44111;DHT22;29774;52.664;5.074;2023-02-28T04:00:43;3.90;91.00
44111;DHT22;29774;52.664;5.074;2023-02-28T04:03:11;3.90;91.00
44111;DHT22;29774;52.664;5.074;2023-02-28T04:05:52;3.90;91.00
44111;DHT22;29774;52.664;5.074;2023-02-28T04:08:18;3.90;91.10
44111;DHT22;29774;52.664;5.074;2023-02-28T04:10:46;4.00;91.10
44111;DHT22;29774;52.664;5.074;2023-02-28T04:13:13;4.00;91.10
44111;DHT22;29774;52.664;5.074;2023-02-28T04:15:39;4.00;91.20
44111;DHT22;29774;52.664;5.074;2023-02-28T04:18:05;4.00;91.20
44111;DHT22;29774;52.664;5.074;2023-02-28T04:20:31;4.00;91.20
44111;DHT22;29774;52.664;5.074;2023-02-28T04:22:57;3.90;91.30
44111;DHT22;29774;52.664;5.074;2023-02-28T04:25:22;4.00;91.30
44111;DHT22;29774;52.664;5.074;2023-02-28T04:27:48;4.00;91.30
44111;DHT22;29774;52.664;5.074;2023-02-28T04:30:13;4.00;91.40
44111;DHT22;29774;52.664;5.074;2023-02-28T04:32:39;4.00;91.40
44111;DHT22;29774;52.664;5.074;2023-02-28T04:35:05;4.00;91.40
44111;DHT22;29774;52.664;5.074;2023-02-28T04:37:31;4.00;91.50
44111;DHT22;29774;52.664;5.074;2023-02-28T04:40:00;4.00;91.50
44111;DHT22;29774;52.664;5.074;2023-02-28T04:42:26;4.10;91.60
44111;DHT22;29774;52.664;5.074;2023-02-28T04:44:52;4.00;91.60
44111;DHT22;29774;52.664;5.074;2023-02-28T04:47:17;4.00;91.60
44111;DHT22;29774;52.664;5.074;2023-02-28T04:49:43;4.10;91.60
44111;DHT22;29774;52.664;5.074;2023-02-28T04:52:09;4.10;91.70
44111;DHT22;29774;52.664;5.074;2023-02-28T04:54:35;4.10;91.70
44111;DHT22;29774;52.664;5.074;2023-02-28T04:57:01;4.10;91.80
44111;DHT22;29774;52.664;5.074;2023-02-28T04:59:27;4.10;91.80
44111;DHT22;29774;52.664;5.074;2023-02-28T05:01:52;4.20;91.90
44111;DHT22;29774;52.664;5.074;2023-02-28T05:04:18;4.20;91.90
44111;DHT22;29774;52.664;5.074;2023-02-28T05:06:44;4.20;91.90
44111;DHT22;29774;52.664;5.074;2023-02-28T05:09:09;4.20;91.90
44111;DHT22;29774;52.664;5.074;2023-02-28T05:11:38;4.20;92.00
44111;DHT22;29774;52.664;5.074;2023-02-28T05:14:12;4.20;92.00
44111;DHT22;29774;52.664;5.074;2023-02-28T05:16:38;4.20;92.00
44111;DHT22;29774;52.664;5.074;2023-02-28T05:19:04;4.20;92.00
44111;DHT22;29774;52.664;5.074;2023-02-28T05:21:32;4.20;92.00
44111;DHT22;29774;52.664;5.074;2023-02-28T05:24:02;4.10;92.00
44111;DHT22;29774;52.664;5.074;2023-02-28T05:26:28;4.20;92.00
44111;DHT22;29774;52.664;5.074;2023-02-28T05:28:54;4.20;91.90
44111;DHT22;29774;52.664;5.074;2023-02-28T05:31:20;4.20;91.90
44111;DHT22;29774;52.664;5.074;2023-02-28T05:33:46;4.20;91.90
44111;DHT22;29774;52.664;5.074;2023-02-28T05:36:12;4.20;91.90
44111;DHT22;29774;52.664;5.074;2023-02-28T05:38:37;4.20;91.90
44111;DHT22;29774;52.664;5.074;2023-02-28T05:41:10;4.20;91.90
44111;DHT22;29774;52.664;5.074;2023-02-28T05:43:36;4.20;91.90
44111;DHT22;29774;52.664;5.074;2023-02-28T05:46:04;4.20;91.80
44111;DHT22;29774;52.664;5.074;2023-02-28T05:48:31;4.10;91.80
44111;DHT22;29774;52.664;5.074;2023-02-28T05:50:57;4.10;91.70
44111;DHT22;29774;52.664;5.074;2023-02-28T05:53:23;4.00;91.70
44111;DHT22;29774;52.664;5.074;2023-02-28T05:55:48;4.00;91.60
44111;DHT22;29774;52.664;5.074;2023-02-28T05:58:14;4.00;91.60
44111;DHT22;29774;52.664;5.074;2023-02-28T06:00:40;3.90;91.50
44111;DHT22;29774;52.664;5.074;2023-02-28T06:03:05;3.90;91.50
44111;DHT22;29774;52.664;5.074;2023-02-28T06:05:31;3.90;91.50
44111;DHT22;29774;52.664;5.074;2023-02-28T06:07:56;3.90;91.40
44111;DHT22;29774;52.664;5.074;2023-02-28T06:10:22;3.80;91.40
44111;DHT22;29774;52.664;5.074;2023-02-28T06:12:48;3.80;91.40
44111;DHT22;29774;52.664;5.074;2023-02-28T06:15:15;3.80;91.30
44111;DHT22;29774;52.664;5.074;2023-02-28T06:17:41;3.80;91.30
44111;DHT22;29774;52.664;5.074;2023-02-28T06:20:08;3.70;91.30
44111;DHT22;29774;52.664;5.074;2023-02-28T06:22:35;3.70;91.20
44111;DHT22;29774;52.664;5.074;2023-02-28T06:25:02;3.70;91.20
44111;DHT22;29774;52.664;5.074;2023-02-28T06:27:28;3.70;91.20
44111;DHT22;29774;52.664;5.074;2023-02-28T06:29:54;3.70;91.20
44111;DHT22;29774;52.664;5.074;2023-02-28T06:32:21;3.70;91.20
44111;DHT22;29774;52.664;5.074;2023-02-28T06:34:46;3.70;91.20
44111;DHT22;29774;52.664;5.074;2023-02-28T06:37:12;3.70;91.20
44111;DHT22;29774;52.664;5.074;2023-02-28T06:39:38;3.60;91.20
44111;DHT22;29774;52.664;5.074;2023-02-28T06:42:03;3.50;91.10
44111;DHT22;29774;52.664;5.074;2023-02-28T06:44:29;3.50;91.00
44111;DHT22;29774;52.664;5.074;2023-02-28T06:47:01;3.50;91.00
44111;DHT22;29774;52.664;5.074;2023-02-28T06:49:29;3.50;91.00
44111;DHT22;29774;52.664;5.074;2023-02-28T06:51:55;3.50;90.90
44111;DHT22;29774;52.664;5.074;2023-02-28T06:54:21;3.40;90.90
44111;DHT22;29774;52.664;5.074;2023-02-28T06:56:46;3.40;90.90
44111;DHT22;29774;52.664;5.074;2023-02-28T06:59:12;3.40;90.80
44111;DHT22;29774;52.664;5.074;2023-02-28T07:01:39;3.40;90.80
44111;DHT22;29774;52.664;5.074;2023-02-28T07:04:06;3.30;90.80
44111;DHT22;29774;52.664;5.074;2023-02-28T07:06:32;3.30;90.80
44111;DHT22;29774;52.664;5.074;2023-02-28T07:08:58;3.30;90.80
44111;DHT22;29774;52.664;5.074;2023-02-28T07:11:25;3.20;90.90
44111;DHT22;29774;52.664;5.074;2023-02-28T07:13:55;3.20;90.90
44111;DHT22;29774;52.664;5.074;2023-02-28T07:16:21;3.20;91.00
44111;DHT22;29774;52.664;5.074;2023-02-28T07:18:47;3.20;91.00
44111;DHT22;29774;52.664;5.074;2023-02-28T07:21:14;3.20;91.00
44111;DHT22;29774;52.664;5.074;2023-02-28T07:23:39;3.10;91.00
44111;DHT22;29774;52.664;5.074;2023-02-28T07:26:07;3.10;91.00
44111;DHT22;29774;52.664;5.074;2023-02-28T07:28:33;3.00;90.90
44111;DHT22;29774;52.664;5.074;2023-02-28T07:31:06;3.00;90.90
44111;DHT22;29774;52.664;5.074;2023-02-28T07:33:32;2.90;90.80
44111;DHT22;29774;52.664;5.074;2023-02-28T07:36:04;2.90;90.80
44111;DHT22;29774;52.664;5.074;2023-02-28T07:38:30;2.90;90.80
44111;DHT22;29774;52.664;5.074;2023-02-28T07:40:58;2.80;90.80
44111;DHT22;29774;52.664;5.074;2023-02-28T07:43:24;2.80;90.80
44111;DHT22;29774;52.664;5.074;2023-02-28T07:45:49;2.80;90.70
44111;DHT22;29774;52.664;5.074;2023-02-28T07:48:15;2.70;90.60
44111;DHT22;29774;52.664;5.074;2023-02-28T07:50:41;2.70;90.60
44111;DHT22;29774;52.664;5.074;2023-02-28T07:53:07;2.70;90.60
44111;DHT22;29774;52.664;5.074;2023-02-28T07:55:32;2.60;90.60
44111;DHT22;29774;52.664;5.074;2023-02-28T07:57:58;2.70;90.60
44111;DHT22;29774;52.664;5.074;2023-02-28T08:00:24;2.70;90.60
44111;DHT22;29774;52.664;5.074;2023-02-28T08:02:50;2.60;90.60
44111;DHT22;29774;52.664;5.074;2023-02-28T08:05:16;2.60;90.60
44111;DHT22;29774;52.664;5.074;2023-02-28T08:07:42;2.70;90.60
44111;DHT22;29774;52.664;5.074;2023-02-28T08:10:08;2.70;90.50
44111;DHT22;29774;52.664;5.074;2023-02-28T08:12:35;2.70;90.50
44111;DHT22;29774;52.664;5.074;2023-02-28T08:15:00;2.60;90.60
44111;DHT22;29774;52.664;5.074;2023-02-28T08:17:26;2.60;90.50
44111;DHT22;29774;52.664;5.074;2023-02-28T08:19:53;2.60;90.50
44111;DHT22;29774;52.664;5.074;2023-02-28T08:22:18;2.60;90.50
44111;DHT22;29774;52.664;5.074;2023-02-28T08:24:44;2.50;90.50
44111;DHT22;29774;52.664;5.074;2023-02-28T08:27:09;2.50;90.50
44111;DHT22;29774;52.664;5.074;2023-02-28T08:29:37;2.50;90.60
44111;DHT22;29774;52.664;5.074;2023-02-28T08:32:04;2.40;90.60
44111;DHT22;29774;52.664;5.074;2023-02-28T08:34:30;2.40;90.70
44111;DHT22;29774;52.664;5.074;2023-02-28T08:36:55;2.40;90.70
44111;DHT22;29774;52.664;5.074;2023-02-28T08:39:21;2.50;90.80
44111;DHT22;29774;52.664;5.074;2023-02-28T08:41:46;2.40;90.80
44111;DHT22;29774;52.664;5.074;2023-02-28T08:44:12;2.50;90.90
44111;DHT22;29774;52.664;5.074;2023-02-28T08:46:38;2.50;90.90
44111;DHT22;29774;52.664;5.074;2023-02-28T08:49:04;2.50;90.90
44111;DHT22;29774;52.664;5.074;2023-02-28T08:51:29;2.50;90.90
44111;DHT22;29774;52.664;5.074;2023-02-28T08:53:59;2.60;91.00
44111;DHT22;29774;52.664;5.074;2023-02-28T08:56:26;2.50;91.00
44111;DHT22;29774;52.664;5.074;2023-02-28T08:58:54;2.70;91.10
44111;DHT22;29774;52.664;5.074;2023-02-28T09:01:28;2.70;91.00
44111;DHT22;29774;52.664;5.074;2023-02-28T09:03:55;2.70;91.10
44111;DHT22;29774;52.664;5.074;2023-02-28T09:06:22;2.70;91.10
44111;DHT22;29774;52.664;5.074;2023-02-28T09:08:49;2.80;91.20
44111;DHT22;29774;52.664;5.074;2023-02-28T09:11:15;2.90;91.20
44111;DHT22;29774;52.664;5.074;2023-02-28T09:13:41;2.90;91.30
44111;DHT22;29774;52.664;5.074;2023-02-28T09:16:10;3.00;91.30
44111;DHT22;29774;52.664;5.074;2023-02-28T09:18:36;3.00;91.40
44111;DHT22;29774;52.664;5.074;2023-02-28T09:21:06;3.10;91.50
44111;DHT22;29774;52.664;5.074;2023-02-28T09:23:32;3.20;91.50
44111;DHT22;29774;52.664;5.074;2023-02-28T09:25:58;3.20;91.50
44111;DHT22;29774;52.664;5.074;2023-02-28T09:28:24;3.20;91.50
44111;DHT22;29774;52.664;5.074;2023-02-28T09:30:53;3.30;91.50
44111;DHT22;29774;52.664;5.074;2023-02-28T09:33:20;3.30;91.40
44111;DHT22;29774;52.664;5.074;2023-02-28T09:35:47;3.40;91.50
44111;DHT22;29774;52.664;5.074;2023-02-28T09:38:13;3.50;91.50
44111;DHT22;29774;52.664;5.074;2023-02-28T09:41:00;3.50;91.50
44111;DHT22;29774;52.664;5.074;2023-02-28T09:43:31;3.60;91.50
44111;DHT22;29774;52.664;5.074;2023-02-28T09:46:20;3.70;91.40
44111;DHT22;29774;52.664;5.074;2023-02-28T09:48:50;3.70;91.40
44111;DHT22;29774;52.664;5.074;2023-02-28T09:54:18;3.90;91.30
44111;DHT22;29774;52.664;5.074;2023-02-28T10:05:12;4.10;90.80
44111;DHT22;29774;52.664;5.074;2023-02-28T10:08:06;4.20;90.70
44111;DHT22;29774;52.664;5.074;2023-02-28T10:10:57;4.20;90.50
44111;DHT22;29774;52.664;5.074;2023-02-28T10:13:33;4.40;90.30
44111;DHT22;29774;52.664;5.074;2023-02-28T10:16:11;4.40;90.00
44111;DHT22;29774;52.664;5.074;2023-02-28T10:18:46;4.40;89.60
44111;DHT22;29774;52.664;5.074;2023-02-28T10:21:34;4.50;89.20
44111;DHT22;29774;52.664;5.074;2023-02-28T10:26:59;4.80;88.60
44111;DHT22;29774;52.664;5.074;2023-02-28T10:29:25;5.00;88.00
44111;DHT22;29774;52.664;5.074;2023-02-28T10:31:51;5.20;87.60
44111;DHT22;29774;52.664;5.074;2023-02-28T10:34:17;5.30;86.70
44111;DHT22;29774;52.664;5.074;2023-02-28T10:36:43;5.50;86.10
44111;DHT22;29774;52.664;5.074;2023-02-28T10:39:38;5.60;83.10
44111;DHT22;29774;52.664;5.074;2023-02-28T10:42:06;5.70;82.10
44111;DHT22;29774;52.664;5.074;2023-02-28T10:44:43;5.70;82.10
44111;DHT22;29774;52.664;5.074;2023-02-28T10:47:15;6.00;82.60
44111;DHT22;29774;52.664;5.074;2023-02-28T10:49:47;6.10;80.80
44111;DHT22;29774;52.664;5.074;2023-02-28T10:52:40;6.30;81.50
44111;DHT22;29774;52.664;5.074;2023-02-28T10:55:36;6.20;80.10
44111;DHT22;29774;52.664;5.074;2023-02-28T10:58:02;6.20;80.70
44111;DHT22;29774;52.664;5.074;2023-02-28T11:00:34;6.10;80.70
44111;DHT22;29774;52.664;5.074;2023-02-28T11:03:00;6.00;80.90
44111;DHT22;29774;52.664;5.074;2023-02-28T11:05:33;6.00;81.20
44111;DHT22;29774;52.664;5.074;2023-02-28T11:10:30;6.10;81.60
44111;DHT22;29774;52.664;5.074;2023-02-28T11:13:00;6.00;80.00
44111;DHT22;29774;52.664;5.074;2023-02-28T11:15:29;6.20;80.60
44111;DHT22;29774;52.664;5.074;2023-02-28T11:17:58;6.20;80.70
44111;DHT22;29774;52.664;5.074;2023-02-28T11:20:27;6.30;80.40
44111;DHT22;29774;52.664;5.074;2023-02-28T11:22:53;6.20;78.90
44111;DHT22;29774;52.664;5.074;2023-02-28T11:25:30;6.20;78.50
44111;DHT22;29774;52.664;5.074;2023-02-28T11:28:00;6.30;77.40
44111;DHT22;29774;52.664;5.074;2023-02-28T11:30:31;6.30;78.00
44111;DHT22;29774;52.664;5.074;2023-02-28T11:32:57;6.50;79.50
44111;DHT22;29774;52.664;5.074;2023-02-28T11:35:35;6.70;78.20
44111;DHT22;29774;52.664;5.074;2023-02-28T11:38:04;6.70;76.00
44111;DHT22;29774;52.664;5.074;2023-02-28T11:43:24;6.90;73.50
44111;DHT22;29774;52.664;5.074;2023-02-28T11:46:06;6.90;73.80
44111;DHT22;29774;52.664;5.074;2023-02-28T11:52:20;6.80;70.20
44111;DHT22;29774;52.664;5.074;2023-02-28T11:55:07;6.90;70.80
44111;DHT22;29774;52.664;5.074;2023-02-28T12:00:23;6.90;68.40
44111;DHT22;29774;52.664;5.074;2023-02-28T12:08:48;7.40;65.60
44111;DHT22;29774;52.664;5.074;2023-02-28T12:14:22;7.50;61.70
44111;DHT22;29774;52.664;5.074;2023-02-28T12:17:02;7.50;62.20
44111;DHT22;29774;52.664;5.074;2023-02-28T12:22:37;7.70;62.30
44111;DHT22;29774;52.664;5.074;2023-02-28T12:27:55;8.00;62.60
44111;DHT22;29774;52.664;5.074;2023-02-28T12:30:30;8.20;62.90
44111;DHT22;29774;52.664;5.074;2023-02-28T12:32:57;8.40;60.50
44111;DHT22;29774;52.664;5.074;2023-02-28T12:35:32;8.60;61.00
44111;DHT22;29774;52.664;5.074;2023-02-28T12:38:12;8.70;58.90
44111;DHT22;29774;52.664;5.074;2023-02-28T12:41:02;8.30;58.80
44111;DHT22;29774;52.664;5.074;2023-02-28T12:43:35;7.70;57.70
44111;DHT22;29774;52.664;5.074;2023-02-28T12:46:39;7.30;59.40
44111;DHT22;29774;52.664;5.074;2023-02-28T12:49:14;7.00;60.60
44111;DHT22;29774;52.664;5.074;2023-02-28T12:51:41;6.70;62.80
44111;DHT22;29774;52.664;5.074;2023-02-28T12:59:48;6.30;63.40
44111;DHT22;29774;52.664;5.074;2023-02-28T13:10:19;5.60;62.30
44111;DHT22;29774;52.664;5.074;2023-02-28T13:13:03;5.50;62.20
44111;DHT22;29774;52.664;5.074;2023-02-28T13:15:29;5.50;62.70
44111;DHT22;29774;52.664;5.074;2023-02-28T13:17:58;5.50;63.40
44111;DHT22;29774;52.664;5.074;2023-02-28T13:20:27;5.40;63.40
44111;DHT22;29774;52.664;5.074;2023-02-28T13:22:54;5.30;63.80
44111;DHT22;29774;52.664;5.074;2023-02-28T13:27:51;5.20;62.10
44111;DHT22;29774;52.664;5.074;2023-02-28T13:46:32;4.90;64.80
44111;DHT22;29774;52.664;5.074;2023-02-28T13:49:24;4.90;63.50
44111;DHT22;29774;52.664;5.074;2023-02-28T13:51:50;4.80;64.40
44111;DHT22;29774;52.664;5.074;2023-02-28T13:54:24;4.70;62.10
44111;DHT22;29774;52.664;5.074;2023-02-28T14:03:04;4.70;63.60
44111;DHT22;29774;52.664;5.074;2023-02-28T14:05:22;4.70;63.70
44111;DHT22;29774;52.664;5.074;2023-02-28T14:07:54;4.70;63.90
44111;DHT22;29774;52.664;5.074;2023-02-28T14:13:38;4.60;63.50
44111;DHT22;29774;52.664;5.074;2023-02-28T14:16:11;4.70;64.20
44111;DHT22;29774;52.664;5.074;2023-02-28T14:18:42;4.70;64.50
44111;DHT22;29774;52.664;5.074;2023-02-28T14:21:27;4.80;64.50
44111;DHT22;29774;52.664;5.074;2023-02-28T14:32:13;4.60;65.70
44111;DHT22;29774;52.664;5.074;2023-02-28T14:34:49;4.60;64.90
44111;DHT22;29774;52.664;5.074;2023-02-28T14:37:38;4.70;64.40
44111;DHT22;29774;52.664;5.074;2023-02-28T14:40:15;4.60;64.30
44111;DHT22;29774;52.664;5.074;2023-02-28T14:42:47;4.60;63.60
44111;DHT22;29774;52.664;5.074;2023-02-28T14:45:18;4.60;62.60
44111;DHT22;29774;52.664;5.074;2023-02-28T14:47:44;4.60;62.70
44111;DHT22;29774;52.664;5.074;2023-02-28T14:50:27;4.60;62.10
44111;DHT22;29774;52.664;5.074;2023-02-28T14:52:55;4.60;62.20
44111;DHT22;29774;52.664;5.074;2023-02-28T14:55:31;4.60;62.80
44111;DHT22;29774;52.664;5.074;2023-02-28T14:58:00;4.60;63.30
44111;DHT22;29774;52.664;5.074;2023-02-28T15:00:34;4.60;63.70
44111;DHT22;29774;52.664;5.074;2023-02-28T15:03:01;4.60;65.00
44111;DHT22;29774;52.664;5.074;2023-02-28T15:05:37;4.60;65.60
44111;DHT22;29774;52.664;5.074;2023-02-28T15:08:06;4.60;65.70
44111;DHT22;29774;52.664;5.074;2023-02-28T15:10:33;4.60;64.10
44111;DHT22;29774;52.664;5.074;2023-02-28T15:13:00;4.60;65.00
44111;DHT22;29774;52.664;5.074;2023-02-28T15:15:49;4.60;65.00
44111;DHT22;29774;52.664;5.074;2023-02-28T15:20:49;4.60;66.90
44111;DHT22;29774;52.664;5.074;2023-02-28T15:23:16;4.60;67.10
44111;DHT22;29774;52.664;5.074;2023-02-28T15:25:42;4.50;65.70
44111;DHT22;29774;52.664;5.074;2023-02-28T15:28:16;4.50;66.40
44111;DHT22;29774;52.664;5.074;2023-02-28T15:30:59;4.50;66.80
44111;DHT22;29774;52.664;5.074;2023-02-28T15:33:30;4.50;67.00
44111;DHT22;29774;52.664;5.074;2023-02-28T15:36:16;4.50;67.10
44111;DHT22;29774;52.664;5.074;2023-02-28T15:38:51;4.50;66.60
44111;DHT22;29774;52.664;5.074;2023-02-28T15:41:31;4.50;67.60
44111;DHT22;29774;52.664;5.074;2023-02-28T15:44:25;4.40;67.40
44111;DHT22;29774;52.664;5.074;2023-02-28T15:47:12;4.50;67.50
44111;DHT22;29774;52.664;5.074;2023-02-28T15:49:49;4.40;67.80
44111;DHT22;29774;52.664;5.074;2023-02-28T15:52:19;4.40;68.30
44111;DHT22;29774;52.664;5.074;2023-02-28T15:54:46;4.50;67.90
44111;DHT22;29774;52.664;5.074;2023-02-28T15:57:24;4.50;68.10
44111;DHT22;29774;52.664;5.074;2023-02-28T15:59:56;4.60;68.60
44111;DHT22;29774;52.664;5.074;2023-02-28T16:02:33;4.60;68.60
44111;DHT22;29774;52.664;5.074;2023-02-28T16:05:20;4.60;69.20
44111;DHT22;29774;52.664;5.074;2023-02-28T16:07:53;4.60;68.80
44111;DHT22;29774;52.664;5.074;2023-02-28T16:10:23;4.50;69.10
44111;DHT22;29774;52.664;5.074;2023-02-28T16:12:53;4.50;69.10
44111;DHT22;29774;52.664;5.074;2023-02-28T16:15:25;4.50;69.50
44111;DHT22;29774;52.664;5.074;2023-02-28T16:17:52;4.50;70.10
44111;DHT22;29774;52.664;5.074;2023-02-28T16:20:21;4.50;70.20
44111;DHT22;29774;52.664;5.074;2023-02-28T16:22:47;4.40;70.10
44111;DHT22;29774;52.664;5.074;2023-02-28T16:25:14;4.40;70.10
44111;DHT22;29774;52.664;5.074;2023-02-28T16:27:42;4.30;70.50
44111;DHT22;29774;52.664;5.074;2023-02-28T16:30:18;4.30;70.80
44111;DHT22;29774;52.664;5.074;2023-02-28T16:32:44;4.30;70.70
44111;DHT22;29774;52.664;5.074;2023-02-28T16:35:11;4.20;70.90
44111;DHT22;29774;52.664;5.074;2023-02-28T16:37:37;4.20;71.50
44111;DHT22;29774;52.664;5.074;2023-02-28T16:40:03;4.10;72.00
44111;DHT22;29774;52.664;5.074;2023-02-28T16:42:29;4.00;72.20
44111;DHT22;29774;52.664;5.074;2023-02-28T16:44:56;4.00;72.60
44111;DHT22;29774;52.664;5.074;2023-02-28T16:47:23;4.00;72.70
44111;DHT22;29774;52.664;5.074;2023-02-28T16:49:49;4.00;72.60
44111;DHT22;29774;52.664;5.074;2023-02-28T16:52:15;4.00;73.00
44111;DHT22;29774;52.664;5.074;2023-02-28T16:54:41;3.90;73.40
44111;DHT22;29774;52.664;5.074;2023-02-28T16:57:19;3.80;73.60
44111;DHT22;29774;52.664;5.074;2023-02-28T16:59:47;3.80;73.90
44111;DHT22;29774;52.664;5.074;2023-02-28T17:02:14;3.70;74.20
44111;DHT22;29774;52.664;5.074;2023-02-28T17:04:40;3.70;74.50
44111;DHT22;29774;52.664;5.074;2023-02-28T17:07:14;3.70;74.70
44111;DHT22;29774;52.664;5.074;2023-02-28T17:09:41;3.70;75.10
44111;DHT22;29774;52.664;5.074;2023-02-28T17:12:07;3.60;75.30
44111;DHT22;29774;52.664;5.074;2023-02-28T17:14:34;3.40;75.70
44111;DHT22;29774;52.664;5.074;2023-02-28T17:16:59;3.40;76.10
44111;DHT22;29774;52.664;5.074;2023-02-28T17:19:25;3.30;76.60
44111;DHT22;29774;52.664;5.074;2023-02-28T17:21:50;3.30;77.00
44111;DHT22;29774;52.664;5.074;2023-02-28T17:24:16;3.20;77.20
44111;DHT22;29774;52.664;5.074;2023-02-28T17:26:42;3.20;77.40
44111;DHT22;29774;52.664;5.074;2023-02-28T17:29:25;3.10;77.80
44111;DHT22;29774;52.664;5.074;2023-02-28T17:31:51;3.00;78.00
44111;DHT22;29774;52.664;5.074;2023-02-28T17:34:17;3.00;78.30
44111;DHT22;29774;52.664;5.074;2023-02-28T17:36:48;2.80;78.50
44111;DHT22;29774;52.664;5.074;2023-02-28T17:39:15;2.80;78.90
44111;DHT22;29774;52.664;5.074;2023-02-28T17:41:46;2.80;79.00
44111;DHT22;29774;52.664;5.074;2023-02-28T17:44:12;2.80;79.10
44111;DHT22;29774;52.664;5.074;2023-02-28T17:46:38;2.90;79.10
44111;DHT22;29774;52.664;5.074;2023-02-28T17:49:04;2.90;79.10
44111;DHT22;29774;52.664;5.074;2023-02-28T17:51:29;2.90;79.10
44111;DHT22;29774;52.664;5.074;2023-02-28T17:53:55;2.90;79.10
44111;DHT22;29774;52.664;5.074;2023-02-28T17:56:23;2.90;79.20
44111;DHT22;29774;52.664;5.074;2023-02-28T17:58:50;2.90;79.30
44111;DHT22;29774;52.664;5.074;2023-02-28T18:01:16;2.80;79.40